sensor_id;sensor_type;location;lat;lon;timestamp;pressure;altitude;pressure_sealevel;temperature
82636;BMP280;72317;37.280;-121.948;2023-09-19T00:00:17;100795.81;;;24.51
82636;BMP280;72317;37.280;-121.948;2023-09-19T00:02:46;100795.63;;;24.41
82636;BMP280;72317;37.280;-121.948;2023-09-19T00:05:17;100802.25;;;24.40
82636;BMP280;72317;37.280;-121.948;2023-09-19T00:07:43;100795.44;;;24.58
82636;BMP280;72317;37.280;-121.948;2023-09-19T00:10:10;100795.78;;;27.22
82636;BMP280;72317;37.280;-121.948;2023-09-19T00:12:37;100792.91;;;25.38
82636;BMP280;72317;37.280;-121.948;2023-09-19T00:15:03;100799.63;;;26.33
82636;BMP280;72317;37.280;-121.948;2023-09-19T00:17:29;100796.63;;;26.25
82636;BMP280;72317;37.280;-121.948;2023-09-19T00:19:57;100800.63;;;26.04
82636;BMP280;72317;37.280;-121.948;2023-09-19T00:22:23;100799.72;;;27.79
82636;BMP280;72317;37.280;-121.948;2023-09-19T00:24:52;100794.09;;;25.71
82636;BMP280;72317;37.280;-121.948;2023-09-19T00:27:19;100795.25;;;26.71
82636;BMP280;72317;37.280;-121.948;2023-09-19T00:29:45;100802.72;;;26.20
82636;BMP280;72317;37.280;-121.948;2023-09-19T00:32:11;100792.53;;;26.10
82636;BMP280;72317;37.280;-121.948;2023-09-19T00:34:37;100792.31;;;27.74
82636;BMP280;72317;37.280;-121.948;2023-09-19T00:37:03;100796.38;;;25.78
82636;BMP280;72317;37.280;-121.948;2023-09-19T00:39:29;100799.81;;;26.85
82636;BMP280;72317;37.280;-121.948;2023-09-19T00:41:57;100796.88;;;26.27
82636;BMP280;72317;37.280;-121.948;2023-09-19T00:44:43;100813.28;;;25.87
82636;BMP280;72317;37.280;-121.948;2023-09-19T00:47:10;100793.66;;;27.37
82636;BMP280;72317;37.280;-121.948;2023-09-19T00:49:41;100800.91;;;25.47
82636;BMP280;72317;37.280;-121.948;2023-09-19T00:52:07;100806.28;;;26.57
82636;BMP280;72317;37.280;-121.948;2023-09-19T00:54:36;100803.63;;;25.27
82636;BMP280;72317;37.280;-121.948;2023-09-19T00:57:02;100795.22;;;24.91
82636;BMP280;72317;37.280;-121.948;2023-09-19T00:59:28;100802.81;;;24.72
82636;BMP280;72317;37.280;-121.948;2023-09-19T01:01:56;100804.13;;;24.48
82636;BMP280;72317;37.280;-121.948;2023-09-19T01:04:23;100803.28;;;24.56
82636;BMP280;72317;37.280;-121.948;2023-09-19T01:06:49;100809.53;;;24.48
82636;BMP280;72317;37.280;-121.948;2023-09-19T01:09:19;100816.34;;;24.44
82636;BMP280;72317;37.280;-121.948;2023-09-19T01:11:48;100820.66;;;24.36
82636;BMP280;72317;37.280;-121.948;2023-09-19T01:14:37;100816.56;;;24.02
82636;BMP280;72317;37.280;-121.948;2023-09-19T01:17:29;100822.53;;;24.15
82636;BMP280;72317;37.280;-121.948;2023-09-19T01:22:39;100834.59;;;23.91
82636;BMP280;72317;37.280;-121.948;2023-09-19T01:28:39;100825.75;;;23.81
82636;BMP280;72317;37.280;-121.948;2023-09-19T01:31:12;100830.59;;;23.78
82636;BMP280;72317;37.280;-121.948;2023-09-19T01:34:00;100829.41;;;23.79
82636;BMP280;72317;37.280;-121.948;2023-09-19T01:36:31;100839.53;;;23.69
82636;BMP280;72317;37.280;-121.948;2023-09-19T01:39:10;100831.50;;;23.75
82636;BMP280;72317;37.280;-121.948;2023-09-19T01:42:15;100840.81;;;23.59
82636;BMP280;72317;37.280;-121.948;2023-09-19T01:47:37;100839.56;;;22.96
82636;BMP280;72317;37.280;-121.948;2023-09-19T01:52:59;100846.28;;;23.09
82636;BMP280;72317;37.280;-121.948;2023-09-19T01:55:30;100853.13;;;23.28
82636;BMP280;72317;37.280;-121.948;2023-09-19T01:58:27;100859.28;;;23.28
82636;BMP280;72317;37.280;-121.948;2023-09-19T02:00:56;100854.06;;;23.16
82636;BMP280;72317;37.280;-121.948;2023-09-19T02:03:26;100855.31;;;22.97
82636;BMP280;72317;37.280;-121.948;2023-09-19T02:05:54;100853.97;;;22.93
82636;BMP280;72317;37.280;-121.948;2023-09-19T02:08:22;100843.47;;;22.95
82636;BMP280;72317;37.280;-121.948;2023-09-19T02:10:52;100865.25;;;22.91
82636;BMP280;72317;37.280;-121.948;2023-09-19T02:13:19;100861.97;;;22.87
82636;BMP280;72317;37.280;-121.948;2023-09-19T02:15:46;100863.91;;;22.87
82636;BMP280;72317;37.280;-121.948;2023-09-19T02:18:13;100871.72;;;22.94
82636;BMP280;72317;37.280;-121.948;2023-09-19T02:20:40;100878.94;;;22.61
82636;BMP280;72317;37.280;-121.948;2023-09-19T02:23:07;100874.16;;;22.74
82636;BMP280;72317;37.280;-121.948;2023-09-19T02:25:34;100878.34;;;22.57
82636;BMP280;72317;37.280;-121.948;2023-09-19T02:28:01;100883.00;;;22.56
82636;BMP280;72317;37.280;-121.948;2023-09-19T02:30:29;100878.66;;;22.59
82636;BMP280;72317;37.280;-121.948;2023-09-19T02:32:56;100886.03;;;22.49
82636;BMP280;72317;37.280;-121.948;2023-09-19T02:35:22;100882.84;;;22.69
82636;BMP280;72317;37.280;-121.948;2023-09-19T02:37:49;100889.16;;;22.39
82636;BMP280;72317;37.280;-121.948;2023-09-19T02:40:15;100889.47;;;22.50
82636;BMP280;72317;37.280;-121.948;2023-09-19T02:42:48;100893.22;;;22.43
82636;BMP280;72317;37.280;-121.948;2023-09-19T02:45:16;100905.53;;;22.44
82636;BMP280;72317;37.280;-121.948;2023-09-19T02:47:46;100899.06;;;22.42
82636;BMP280;72317;37.280;-121.948;2023-09-19T02:50:13;100906.84;;;22.13
82636;BMP280;72317;37.280;-121.948;2023-09-19T02:52:45;100899.69;;;22.37
82636;BMP280;72317;37.280;-121.948;2023-09-19T02:55:16;100911.38;;;22.34
82636;BMP280;72317;37.280;-121.948;2023-09-19T02:57:52;100910.78;;;22.39
82636;BMP280;72317;37.280;-121.948;2023-09-19T03:00:21;100914.50;;;22.24
82636;BMP280;72317;37.280;-121.948;2023-09-19T03:02:53;100917.81;;;22.28
82636;BMP280;72317;37.280;-121.948;2023-09-19T03:05:19;100920.47;;;22.10
82636;BMP280;72317;37.280;-121.948;2023-09-19T03:07:50;100920.94;;;22.08
82636;BMP280;72317;37.280;-121.948;2023-09-19T03:10:19;100924.13;;;22.25
82636;BMP280;72317;37.280;-121.948;2023-09-19T03:12:49;100930.41;;;22.13
82636;BMP280;72317;37.280;-121.948;2023-09-19T03:15:15;100930.53;;;21.70
82636;BMP280;72317;37.280;-121.948;2023-09-19T03:17:44;100930.38;;;21.65
82636;BMP280;72317;37.280;-121.948;2023-09-19T03:20:11;100932.75;;;21.63
82636;BMP280;72317;37.280;-121.948;2023-09-19T03:22:39;100941.81;;;21.77
82636;BMP280;72317;37.280;-121.948;2023-09-19T03:25:06;100938.16;;;21.63
82636;BMP280;72317;37.280;-121.948;2023-09-19T03:27:36;100942.88;;;21.80
82636;BMP280;72317;37.280;-121.948;2023-09-19T03:30:04;100948.81;;;21.66
82636;BMP280;72317;37.280;-121.948;2023-09-19T03:32:43;100952.88;;;21.62
82636;BMP280;72317;37.280;-121.948;2023-09-19T03:35:09;100955.28;;;21.69
82636;BMP280;72317;37.280;-121.948;2023-09-19T03:37:42;100959.22;;;21.76
82636;BMP280;72317;37.280;-121.948;2023-09-19T03:40:10;100960.06;;;21.43
82636;BMP280;72317;37.280;-121.948;2023-09-19T03:42:39;100964.56;;;21.68
82636;BMP280;72317;37.280;-121.948;2023-09-19T03:45:07;100960.19;;;21.40
82636;BMP280;72317;37.280;-121.948;2023-09-19T03:47:38;100967.81;;;21.54
82636;BMP280;72317;37.280;-121.948;2023-09-19T03:50:05;100970.66;;;21.50
82636;BMP280;72317;37.280;-121.948;2023-09-19T03:52:34;100970.19;;;21.52
82636;BMP280;72317;37.280;-121.948;2023-09-19T03:55:00;100973.56;;;21.43
82636;BMP280;72317;37.280;-121.948;2023-09-19T03:57:28;100970.50;;;21.32
82636;BMP280;72317;37.280;-121.948;2023-09-19T03:59:54;100972.72;;;21.25
82636;BMP280;72317;37.280;-121.948;2023-09-19T04:02:21;100977.78;;;21.44
82636;BMP280;72317;37.280;-121.948;2023-09-19T04:04:51;100985.19;;;21.53
82636;BMP280;72317;37.280;-121.948;2023-09-19T04:07:18;100978.09;;;21.25
82636;BMP280;72317;37.280;-121.948;2023-09-19T04:09:48;100975.66;;;21.18
82636;BMP280;72317;37.280;-121.948;2023-09-19T04:12:15;100974.34;;;21.22
82636;BMP280;72317;37.280;-121.948;2023-09-19T04:14:44;100977.00;;;21.35
82636;BMP280;72317;37.280;-121.948;2023-09-19T04:17:10;100981.16;;;21.36
82636;BMP280;72317;37.280;-121.948;2023-09-19T04:19:37;100971.88;;;21.37
82636;BMP280;72317;37.280;-121.948;2023-09-19T04:22:03;100981.25;;;21.23
82636;BMP280;72317;37.280;-121.948;2023-09-19T04:24:30;100976.75;;;21.08
82636;BMP280;72317;37.280;-121.948;2023-09-19T04:26:57;100985.75;;;21.05
82636;BMP280;72317;37.280;-121.948;2023-09-19T04:29:24;100981.00;;;20.97
82636;BMP280;72317;37.280;-121.948;2023-09-19T04:31:52;100984.81;;;20.99
82636;BMP280;72317;37.280;-121.948;2023-09-19T04:34:18;100988.06;;;21.15
82636;BMP280;72317;37.280;-121.948;2023-09-19T04:36:44;100985.22;;;20.98
82636;BMP280;72317;37.280;-121.948;2023-09-19T04:39:10;100996.38;;;21.08
82636;BMP280;72317;37.280;-121.948;2023-09-19T04:41:38;100992.19;;;21.07
82636;BMP280;72317;37.280;-121.948;2023-09-19T04:44:07;100989.41;;;20.98
82636;BMP280;72317;37.280;-121.948;2023-09-19T04:46:34;100984.59;;;20.94
82636;BMP280;72317;37.280;-121.948;2023-09-19T04:49:01;100985.25;;;20.85
82636;BMP280;72317;37.280;-121.948;2023-09-19T04:51:28;100984.94;;;20.83
82636;BMP280;72317;37.280;-121.948;2023-09-19T04:53:58;100974.22;;;20.92
82636;BMP280;72317;37.280;-121.948;2023-09-19T04:56:24;100981.94;;;20.81
82636;BMP280;72317;37.280;-121.948;2023-09-19T04:58:51;100980.25;;;20.75
82636;BMP280;72317;37.280;-121.948;2023-09-19T05:01:17;100976.66;;;20.78
82636;BMP280;72317;37.280;-121.948;2023-09-19T05:03:43;100978.69;;;20.86
82636;BMP280;72317;37.280;-121.948;2023-09-19T05:06:10;100979.75;;;20.76
82636;BMP280;72317;37.280;-121.948;2023-09-19T05:08:37;100976.44;;;20.72
82636;BMP280;72317;37.280;-121.948;2023-09-19T05:11:04;100975.59;;;20.75
82636;BMP280;72317;37.280;-121.948;2023-09-19T05:13:31;100975.38;;;20.70
82636;BMP280;72317;37.280;-121.948;2023-09-19T05:16:00;100971.31;;;20.53
82636;BMP280;72317;37.280;-121.948;2023-09-19T05:18:29;100970.56;;;20.40
82636;BMP280;72317;37.280;-121.948;2023-09-19T05:20:55;100977.94;;;20.39
82636;BMP280;72317;37.280;-121.948;2023-09-19T05:23:21;100979.06;;;20.63
82636;BMP280;72317;37.280;-121.948;2023-09-19T05:25:47;100985.44;;;20.44
82636;BMP280;72317;37.280;-121.948;2023-09-19T05:28:14;100976.28;;;20.42
82636;BMP280;72317;37.280;-121.948;2023-09-19T05:30:41;100982.34;;;20.46
82636;BMP280;72317;37.280;-121.948;2023-09-19T05:33:09;100988.66;;;20.52
82636;BMP280;72317;37.280;-121.948;2023-09-19T05:35:35;100977.59;;;20.37
82636;BMP280;72317;37.280;-121.948;2023-09-19T05:38:07;100975.66;;;20.25
82636;BMP280;72317;37.280;-121.948;2023-09-19T05:40:38;100983.41;;;20.23
82636;BMP280;72317;37.280;-121.948;2023-09-19T05:43:08;100985.03;;;20.33
82636;BMP280;72317;37.280;-121.948;2023-09-19T05:45:34;100991.06;;;20.13
82636;BMP280;72317;37.280;-121.948;2023-09-19T05:48:10;100991.19;;;20.22
82636;BMP280;72317;37.280;-121.948;2023-09-19T05:50:37;100985.44;;;20.20
82636;BMP280;72317;37.280;-121.948;2023-09-19T05:53:04;100979.75;;;20.05
82636;BMP280;72317;37.280;-121.948;2023-09-19T05:55:31;100980.28;;;19.88
82636;BMP280;72317;37.280;-121.948;2023-09-19T05:57:57;100977.16;;;20.02
82636;BMP280;72317;37.280;-121.948;2023-09-19T06:00:24;100981.34;;;20.15
82636;BMP280;72317;37.280;-121.948;2023-09-19T06:02:58;100979.41;;;19.91
82636;BMP280;72317;37.280;-121.948;2023-09-19T06:05:25;100979.28;;;19.94
82636;BMP280;72317;37.280;-121.948;2023-09-19T06:07:58;100986.53;;;19.85
82636;BMP280;72317;37.280;-121.948;2023-09-19T06:10:33;100986.41;;;20.01
82636;BMP280;72317;37.280;-121.948;2023-09-19T06:13:02;100981.25;;;20.06
82636;BMP280;72317;37.280;-121.948;2023-09-19T06:15:31;100987.81;;;19.93
82636;BMP280;72317;37.280;-121.948;2023-09-19T06:17:59;100991.91;;;19.85
82636;BMP280;72317;37.280;-121.948;2023-09-19T06:20:26;100985.75;;;19.84
82636;BMP280;72317;37.280;-121.948;2023-09-19T06:22:52;100989.84;;;19.89
82636;BMP280;72317;37.280;-121.948;2023-09-19T06:25:19;100986.00;;;20.02
82636;BMP280;72317;37.280;-121.948;2023-09-19T06:27:50;100987.69;;;19.84
82636;BMP280;72317;37.280;-121.948;2023-09-19T06:30:18;100982.44;;;19.80
82636;BMP280;72317;37.280;-121.948;2023-09-19T06:32:44;100986.81;;;19.74
82636;BMP280;72317;37.280;-121.948;2023-09-19T06:35:12;100989.16;;;19.60
82636;BMP280;72317;37.280;-121.948;2023-09-19T06:37:38;100981.81;;;19.60
82636;BMP280;72317;37.280;-121.948;2023-09-19T06:40:12;100987.06;;;19.51
82636;BMP280;72317;37.280;-121.948;2023-09-19T06:42:47;100989.94;;;19.45
82636;BMP280;72317;37.280;-121.948;2023-09-19T06:45:15;100986.72;;;19.49
82636;BMP280;72317;37.280;-121.948;2023-09-19T06:47:45;100983.00;;;19.47
82636;BMP280;72317;37.280;-121.948;2023-09-19T06:50:15;100985.59;;;19.63
82636;BMP280;72317;37.280;-121.948;2023-09-19T06:52:45;100985.72;;;19.72
82636;BMP280;72317;37.280;-121.948;2023-09-19T06:55:13;100982.91;;;19.63
82636;BMP280;72317;37.280;-121.948;2023-09-19T06:57:45;100983.03;;;19.72
82636;BMP280;72317;37.280;-121.948;2023-09-19T07:00:12;100984.75;;;19.66
82636;BMP280;72317;37.280;-121.948;2023-09-19T07:03:07;100991.16;;;19.56
82636;BMP280;72317;37.280;-121.948;2023-09-19T07:05:35;100992.69;;;19.57
82636;BMP280;72317;37.280;-121.948;2023-09-19T07:08:05;100988.28;;;19.63
82636;BMP280;72317;37.280;-121.948;2023-09-19T07:10:32;100985.94;;;19.37
82636;BMP280;72317;37.280;-121.948;2023-09-19T07:13:06;100987.69;;;19.43
82636;BMP280;72317;37.280;-121.948;2023-09-19T07:15:35;100990.78;;;19.29
82636;BMP280;72317;37.280;-121.948;2023-09-19T07:18:04;100995.56;;;19.22
82636;BMP280;72317;37.280;-121.948;2023-09-19T07:20:32;100990.34;;;19.31
82636;BMP280;72317;37.280;-121.948;2023-09-19T07:23:00;100993.56;;;19.26
82636;BMP280;72317;37.280;-121.948;2023-09-19T07:25:27;100998.63;;;19.36
82636;BMP280;72317;37.280;-121.948;2023-09-19T07:27:55;100993.06;;;19.43
82636;BMP280;72317;37.280;-121.948;2023-09-19T07:30:22;100989.84;;;19.48
82636;BMP280;72317;37.280;-121.948;2023-09-19T07:32:48;100995.47;;;19.25
82636;BMP280;72317;37.280;-121.948;2023-09-19T07:35:15;100989.75;;;19.23
82636;BMP280;72317;37.280;-121.948;2023-09-19T07:37:41;100992.44;;;19.23
82636;BMP280;72317;37.280;-121.948;2023-09-19T07:40:07;100991.53;;;19.14
82636;BMP280;72317;37.280;-121.948;2023-09-19T07:42:37;100993.16;;;19.11
82636;BMP280;72317;37.280;-121.948;2023-09-19T07:45:07;100993.00;;;19.02
82636;BMP280;72317;37.280;-121.948;2023-09-19T07:47:34;100994.25;;;18.98
82636;BMP280;72317;37.280;-121.948;2023-09-19T07:50:02;100993.50;;;19.13
82636;BMP280;72317;37.280;-121.948;2023-09-19T07:52:29;100988.19;;;18.94
82636;BMP280;72317;37.280;-121.948;2023-09-19T07:54:55;100981.16;;;19.00
82636;BMP280;72317;37.280;-121.948;2023-09-19T07:57:23;100983.44;;;18.85
82636;BMP280;72317;37.280;-121.948;2023-09-19T07:59:49;100981.53;;;19.14
82636;BMP280;72317;37.280;-121.948;2023-09-19T08:02:15;100982.03;;;19.25
82636;BMP280;72317;37.280;-121.948;2023-09-19T08:04:42;100975.38;;;19.30
82636;BMP280;72317;37.280;-121.948;2023-09-19T08:07:09;100987.56;;;19.18
82636;BMP280;72317;37.280;-121.948;2023-09-19T08:09:35;100987.78;;;19.11
82636;BMP280;72317;37.280;-121.948;2023-09-19T08:12:05;100984.00;;;19.09
82636;BMP280;72317;37.280;-121.948;2023-09-19T08:14:33;100988.13;;;18.97
82636;BMP280;72317;37.280;-121.948;2023-09-19T08:17:00;100990.03;;;19.13
82636;BMP280;72317;37.280;-121.948;2023-09-19T08:19:26;100988.19;;;18.94
82636;BMP280;72317;37.280;-121.948;2023-09-19T08:21:57;100993.47;;;18.97
82636;BMP280;72317;37.280;-121.948;2023-09-19T08:24:28;100994.66;;;18.96
82636;BMP280;72317;37.280;-121.948;2023-09-19T08:26:55;100989.06;;;18.91
82636;BMP280;72317;37.280;-121.948;2023-09-19T08:29:25;100999.91;;;18.87
82636;BMP280;72317;37.280;-121.948;2023-09-19T08:31:56;100995.34;;;18.84
82636;BMP280;72317;37.280;-121.948;2023-09-19T08:34:23;100990.97;;;18.59
82636;BMP280;72317;37.280;-121.948;2023-09-19T08:36:53;100990.94;;;18.78
82636;BMP280;72317;37.280;-121.948;2023-09-19T08:39:25;100992.84;;;18.93
82636;BMP280;72317;37.280;-121.948;2023-09-19T08:41:58;100994.09;;;18.73
82636;BMP280;72317;37.280;-121.948;2023-09-19T08:44:28;100995.84;;;18.64
82636;BMP280;72317;37.280;-121.948;2023-09-19T08:47:11;100994.25;;;18.66
82636;BMP280;72317;37.280;-121.948;2023-09-19T08:52:32;100992.31;;;18.51
82636;BMP280;72317;37.280;-121.948;2023-09-19T08:55:02;100997.97;;;18.56
82636;BMP280;72317;37.280;-121.948;2023-09-19T08:57:36;101000.97;;;18.58
82636;BMP280;72317;37.280;-121.948;2023-09-19T09:00:08;101000.22;;;18.58
82636;BMP280;72317;37.280;-121.948;2023-09-19T09:02:38;101003.47;;;18.49
82636;BMP280;72317;37.280;-121.948;2023-09-19T09:05:09;100991.69;;;18.27
82636;BMP280;72317;37.280;-121.948;2023-09-19T09:07:40;100986.50;;;18.36
82636;BMP280;72317;37.280;-121.948;2023-09-19T09:10:07;100984.81;;;18.26
82636;BMP280;72317;37.280;-121.948;2023-09-19T09:12:35;100977.63;;;18.23
82636;BMP280;72317;37.280;-121.948;2023-09-19T09:15:06;100984.88;;;17.88
82636;BMP280;72317;37.280;-121.948;2023-09-19T09:17:34;100981.66;;;18.12
82636;BMP280;72317;37.280;-121.948;2023-09-19T09:20:00;100980.38;;;18.36
82636;BMP280;72317;37.280;-121.948;2023-09-19T09:22:27;100979.78;;;18.28
82636;BMP280;72317;37.280;-121.948;2023-09-19T09:24:54;100977.50;;;18.11
82636;BMP280;72317;37.280;-121.948;2023-09-19T09:27:24;100976.66;;;18.14
82636;BMP280;72317;37.280;-121.948;2023-09-19T09:29:51;100971.78;;;17.89
82636;BMP280;72317;37.280;-121.948;2023-09-19T09:32:28;100968.06;;;18.03
82636;BMP280;72317;37.280;-121.948;2023-09-19T09:34:57;100969.69;;;17.81
82636;BMP280;72317;37.280;-121.948;2023-09-19T09:37:24;100970.44;;;17.82
82636;BMP280;72317;37.280;-121.948;2023-09-19T09:39:56;100969.88;;;17.90
82636;BMP280;72317;37.280;-121.948;2023-09-19T09:42:36;100968.84;;;17.84
82636;BMP280;72317;37.280;-121.948;2023-09-19T09:47:47;100957.53;;;17.77
82636;BMP280;72317;37.280;-121.948;2023-09-19T09:50:28;100954.16;;;17.92
82636;BMP280;72317;37.280;-121.948;2023-09-19T09:53:02;100949.38;;;17.80
82636;BMP280;72317;37.280;-121.948;2023-09-19T09:58:26;100952.25;;;17.89
82636;BMP280;72317;37.280;-121.948;2023-09-19T10:00:58;100947.66;;;17.89
82636;BMP280;72317;37.280;-121.948;2023-09-19T10:03:32;100950.06;;;17.84
82636;BMP280;72317;37.280;-121.948;2023-09-19T10:06:10;100949.75;;;17.82
82636;BMP280;72317;37.280;-121.948;2023-09-19T10:11:47;100953.88;;;17.67
82636;BMP280;72317;37.280;-121.948;2023-09-19T10:14:33;100953.66;;;17.58
82636;BMP280;72317;37.280;-121.948;2023-09-19T10:17:20;100950.63;;;17.56
82636;BMP280;72317;37.280;-121.948;2023-09-19T10:19:55;100942.47;;;17.63
82636;BMP280;72317;37.280;-121.948;2023-09-19T10:22:24;100942.31;;;17.51
82636;BMP280;72317;37.280;-121.948;2023-09-19T10:24:56;100936.16;;;17.73
82636;BMP280;72317;37.280;-121.948;2023-09-19T10:27:26;100936.06;;;17.77
82636;BMP280;72317;37.280;-121.948;2023-09-19T10:29:52;100937.84;;;17.64
82636;BMP280;72317;37.280;-121.948;2023-09-19T10:32:26;100936.53;;;17.72
82636;BMP280;72317;37.280;-121.948;2023-09-19T10:34:54;100942.38;;;17.86
82636;BMP280;72317;37.280;-121.948;2023-09-19T10:37:22;100944.72;;;17.84
82636;BMP280;72317;37.280;-121.948;2023-09-19T10:39:52;100945.81;;;17.87
82636;BMP280;72317;37.280;-121.948;2023-09-19T10:42:20;100945.63;;;17.93
82636;BMP280;72317;37.280;-121.948;2023-09-19T10:44:52;100950.63;;;17.95
82636;BMP280;72317;37.280;-121.948;2023-09-19T10:47:21;100951.00;;;17.78
82636;BMP280;72317;37.280;-121.948;2023-09-19T10:49:50;100945.91;;;17.83
82636;BMP280;72317;37.280;-121.948;2023-09-19T10:52:20;100937.59;;;17.78
82636;BMP280;72317;37.280;-121.948;2023-09-19T10:54:50;100945.16;;;17.63
82636;BMP280;72317;37.280;-121.948;2023-09-19T10:57:22;100938.94;;;17.47
82636;BMP280;72317;37.280;-121.948;2023-09-19T11:00:04;100940.72;;;17.34
82636;BMP280;72317;37.280;-121.948;2023-09-19T11:05:41;100942.66;;;17.53
82636;BMP280;72317;37.280;-121.948;2023-09-19T11:08:08;100938.53;;;17.48
82636;BMP280;72317;37.280;-121.948;2023-09-19T11:10:48;100939.88;;;17.60
82636;BMP280;72317;37.280;-121.948;2023-09-19T11:27:12;100945.03;;;17.28
82636;BMP280;72317;37.280;-121.948;2023-09-19T11:29:39;100936.94;;;17.31
82636;BMP280;72317;37.280;-121.948;2023-09-19T11:32:06;100937.28;;;17.33
82636;BMP280;72317;37.280;-121.948;2023-09-19T11:34:45;100943.91;;;17.06
82636;BMP280;72317;37.280;-121.948;2023-09-19T11:40:07;100933.34;;;17.18
82636;BMP280;72317;37.280;-121.948;2023-09-19T11:42:43;100930.88;;;17.27
82636;BMP280;72317;37.280;-121.948;2023-09-19T11:48:10;100932.84;;;17.04
82636;BMP280;72317;37.280;-121.948;2023-09-19T11:50:39;100925.94;;;17.06
82636;BMP280;72317;37.280;-121.948;2023-09-19T11:53:12;100923.09;;;17.13
82636;BMP280;72317;37.280;-121.948;2023-09-19T11:55:40;100931.25;;;17.29
82636;BMP280;72317;37.280;-121.948;2023-09-19T11:58:09;100919.88;;;17.22
82636;BMP280;72317;37.280;-121.948;2023-09-19T12:00:39;100921.34;;;17.03
82636;BMP280;72317;37.280;-121.948;2023-09-19T12:03:10;100923.81;;;16.95
82636;BMP280;72317;37.280;-121.948;2023-09-19T12:05:37;100923.66;;;17.05
82636;BMP280;72317;37.280;-121.948;2023-09-19T12:08:04;100914.97;;;16.98
82636;BMP280;72317;37.280;-121.948;2023-09-19T12:10:54;100922.34;;;17.13
82636;BMP280;72317;37.280;-121.948;2023-09-19T12:13:23;100920.97;;;17.05
82636;BMP280;72317;37.280;-121.948;2023-09-19T12:15:49;100913.38;;;17.00
82636;BMP280;72317;37.280;-121.948;2023-09-19T12:18:30;100909.03;;;16.87
82636;BMP280;72317;37.280;-121.948;2023-09-19T12:20:56;100915.88;;;16.88
82636;BMP280;72317;37.280;-121.948;2023-09-19T12:23:24;100918.81;;;16.74
82636;BMP280;72317;37.280;-121.948;2023-09-19T12:25:52;100924.59;;;16.69
82636;BMP280;72317;37.280;-121.948;2023-09-19T12:28:24;100915.78;;;16.72
82636;BMP280;72317;37.280;-121.948;2023-09-19T12:30:52;100912.94;;;16.82
82636;BMP280;72317;37.280;-121.948;2023-09-19T12:33:21;100906.06;;;16.81
82636;BMP280;72317;37.280;-121.948;2023-09-19T12:35:51;100903.00;;;16.83
82636;BMP280;72317;37.280;-121.948;2023-09-19T12:38:27;100913.97;;;16.88
82636;BMP280;72317;37.280;-121.948;2023-09-19T12:41:01;100908.81;;;17.01
82636;BMP280;72317;37.280;-121.948;2023-09-19T12:43:29;100907.56;;;17.05
82636;BMP280;72317;37.280;-121.948;2023-09-19T12:45:59;100913.31;;;17.03
82636;BMP280;72317;37.280;-121.948;2023-09-19T12:48:26;100907.13;;;16.87
82636;BMP280;72317;37.280;-121.948;2023-09-19T12:51:10;100905.59;;;16.86
82636;BMP280;72317;37.280;-121.948;2023-09-19T12:53:43;100897.00;;;16.75
82636;BMP280;72317;37.280;-121.948;2023-09-19T12:56:12;100897.38;;;16.97
82636;BMP280;72317;37.280;-121.948;2023-09-19T12:58:57;100898.53;;;16.96
82636;BMP280;72317;37.280;-121.948;2023-09-19T13:01:32;100901.44;;;17.04
82636;BMP280;72317;37.280;-121.948;2023-09-19T13:04:18;100896.56;;;17.00
82636;BMP280;72317;37.280;-121.948;2023-09-19T13:06:49;100904.19;;;17.01
82636;BMP280;72317;37.280;-121.948;2023-09-19T13:09:16;100908.63;;;16.88
82636;BMP280;72317;37.280;-121.948;2023-09-19T13:11:43;100907.59;;;16.82
82636;BMP280;72317;37.280;-121.948;2023-09-19T13:14:15;100913.75;;;16.79
82636;BMP280;72317;37.280;-121.948;2023-09-19T13:17:01;100910.84;;;16.93
82636;BMP280;72317;37.280;-121.948;2023-09-19T13:19:50;100908.88;;;16.97
82636;BMP280;72317;37.280;-121.948;2023-09-19T13:25:23;100913.06;;;16.75
82636;BMP280;72317;37.280;-121.948;2023-09-19T13:27:58;100909.06;;;16.83
82636;BMP280;72317;37.280;-121.948;2023-09-19T13:30:28;100911.41;;;16.81
82636;BMP280;72317;37.280;-121.948;2023-09-19T13:33:08;100913.44;;;16.74
82636;BMP280;72317;37.280;-121.948;2023-09-19T13:35:35;100913.66;;;16.86
82636;BMP280;72317;37.280;-121.948;2023-09-19T13:38:04;100913.66;;;16.86
82636;BMP280;72317;37.280;-121.948;2023-09-19T13:40:30;100917.06;;;16.87
82636;BMP280;72317;37.280;-121.948;2023-09-19T13:43:01;100917.78;;;16.91
82636;BMP280;72317;37.280;-121.948;2023-09-19T13:45:27;100922.66;;;16.96
82636;BMP280;72317;37.280;-121.948;2023-09-19T13:47:56;100926.56;;;16.91
82636;BMP280;72317;37.280;-121.948;2023-09-19T13:50:23;100927.19;;;16.76
82636;BMP280;72317;37.280;-121.948;2023-09-19T13:52:51;100933.41;;;16.69
82636;BMP280;72317;37.280;-121.948;2023-09-19T13:55:17;100936.88;;;16.70
82636;BMP280;72317;37.280;-121.948;2023-09-19T13:57:49;100935.69;;;16.71
82636;BMP280;72317;37.280;-121.948;2023-09-19T14:00:18;100935.22;;;16.76
82636;BMP280;72317;37.280;-121.948;2023-09-19T14:02:44;100935.47;;;16.62
82636;BMP280;72317;37.280;-121.948;2023-09-19T14:05:12;100939.44;;;16.73
82636;BMP280;72317;37.280;-121.948;2023-09-19T14:07:41;100938.66;;;16.76
82636;BMP280;72317;37.280;-121.948;2023-09-19T14:10:07;100939.53;;;16.70
82636;BMP280;72317;37.280;-121.948;2023-09-19T14:12:34;100932.97;;;16.74
82636;BMP280;72317;37.280;-121.948;2023-09-19T14:15:00;100940.13;;;16.81
82636;BMP280;72317;37.280;-121.948;2023-09-19T14:17:27;100938.81;;;16.66
82636;BMP280;72317;37.280;-121.948;2023-09-19T14:19:53;100943.88;;;16.60
82636;BMP280;72317;37.280;-121.948;2023-09-19T14:22:19;100940.03;;;16.61
82636;BMP280;72317;37.280;-121.948;2023-09-19T14:24:46;100936.75;;;16.77